Карточка аэропорта URWI

Внимание!
Информация на этой странице в стадии наполнения.
Если вы не увидели какой-то информации, или заметили неточность - пожалуйста сообщите нам!
Спасибо!
Команда XR-STAFF
Название аэропортаЭлиста
Название аэропорта (англ.)Elista
Превышение502 ft. (153 m.)
Координаты46°22.476', 44°19.428'
Высота перехода4000 ft
Эшелон переходаFL50 (QNH >= 1013); FL60 (QNH 977-1012); FL70 (QNH < 977)
Коды ответчика2420-2427
Зона ОрВДРостов-на-Дону РПИ (URRV)
Данные METARURWI 160800Z 28010MPS 9999 SCT/// 19/04 Q1012 R27/010065 TEMPO 29013G21MPS
Проноз погоды (TAF)
NOTAMshow/hide NOTAM
AWOS   TABLE

Информация о ВПП

ВПП Длина ВПП (м.) Покрытие Курс ВПП Частота ILS
093200Асфальтобетон90108.5
273200Асфальтобетон270 

Диспетчерские позиции




Спутниковое изображение